sensor_id;sensor_type;location;lat;lon;timestamp;P1;durP1;ratioP1;P2;durP2;ratioP2
15404;SDS011;7801;48.124;11.590;2023-06-19T00:02:03;2.37;;;2.27;;
15404;SDS011;7801;48.124;11.590;2023-06-19T00:04:33;3.57;;;2.80;;
15404;SDS011;7801;48.124;11.590;2023-06-19T00:06:59;2.40;;;2.30;;
15404;SDS011;7801;48.124;11.590;2023-06-19T00:09:27;2.53;;;2.37;;
15404;SDS011;7801;48.124;11.590;2023-06-19T00:11:52;4.03;;;3.37;;
15404;SDS011;7801;48.124;11.590;2023-06-19T00:14:22;1.80;;;1.70;;
15404;SDS011;7801;48.124;11.590;2023-06-19T00:16:52;1.67;;;1.60;;
15404;SDS011;7801;48.124;11.590;2023-06-19T00:19:20;2.30;;;2.20;;
15404;SDS011;7801;48.124;11.590;2023-06-19T00:22:08;2.73;;;2.63;;
15404;SDS011;7801;48.124;11.590;2023-06-19T00:24:36;1.73;;;1.63;;
15404;SDS011;7801;48.124;11.590;2023-06-19T00:27:01;2.13;;;2.03;;
15404;SDS011;7801;48.124;11.590;2023-06-19T00:29:43;3.30;;;2.47;;
15404;SDS011;7801;48.124;11.590;2023-06-19T00:32:37;2.07;;;1.97;;
15404;SDS011;7801;48.124;11.590;2023-06-19T00:35:14;2.47;;;2.37;;
15404;SDS011;7801;48.124;11.590;2023-06-19T00:37:44;2.27;;;2.17;;
15404;SDS011;7801;48.124;11.590;2023-06-19T00:40:19;3.00;;;2.23;;
15404;SDS011;7801;48.124;11.590;2023-06-19T00:42:54;2.77;;;2.60;;
15404;SDS011;7801;48.124;11.590;2023-06-19T00:45:25;2.07;;;1.93;;
15404;SDS011;7801;48.124;11.590;2023-06-19T00:48:12;3.77;;;2.07;;
15404;SDS011;7801;48.124;11.590;2023-06-19T00:50:51;3.03;;;2.47;;
15404;SDS011;7801;48.124;11.590;2023-06-19T00:53:17;2.03;;;2.03;;
15404;SDS011;7801;48.124;11.590;2023-06-19T00:55:46;2.73;;;2.63;;
15404;SDS011;7801;48.124;11.590;2023-06-19T00:58:15;4.00;;;3.70;;
15404;SDS011;7801;48.124;11.590;2023-06-19T01:00:52;1.97;;;1.87;;
15404;SDS011;7801;48.124;11.590;2023-06-19T01:03:24;2.50;;;2.30;;
15404;SDS011;7801;48.124;11.590;2023-06-19T01:05:53;2.83;;;2.27;;
15404;SDS011;7801;48.124;11.590;2023-06-19T01:11:28;2.27;;;2.00;;
15404;SDS011;7801;48.124;11.590;2023-06-19T01:14:59;2.23;;;2.13;;
15404;SDS011;7801;48.124;11.590;2023-06-19T01:17:35;2.20;;;2.17;;
15404;SDS011;7801;48.124;11.590;2023-06-19T01:20:13;2.40;;;1.70;;
15404;SDS011;7801;48.124;11.590;2023-06-19T01:23:11;1.93;;;1.83;;
15404;SDS011;7801;48.124;11.590;2023-06-19T01:25:40;2.30;;;2.20;;
15404;SDS011;7801;48.124;11.590;2023-06-19T01:28:09;2.20;;;2.10;;
15404;SDS011;7801;48.124;11.590;2023-06-19T01:30:46;1.73;;;1.63;;
15404;SDS011;7801;48.124;11.590;2023-06-19T01:35:46;1.57;;;1.57;;
15404;SDS011;7801;48.124;11.590;2023-06-19T01:38:35;1.37;;;1.37;;
15404;SDS011;7801;48.124;11.590;2023-06-19T01:41:04;2.70;;;2.60;;
15404;SDS011;7801;48.124;11.590;2023-06-19T01:43:53;2.10;;;2.00;;
15404;SDS011;7801;48.124;11.590;2023-06-19T01:46:19;2.53;;;2.43;;
15404;SDS011;7801;48.124;11.590;2023-06-19T01:48:45;2.83;;;2.70;;
15404;SDS011;7801;48.124;11.590;2023-06-19T01:51:16;7.73;;;2.83;;
15404;SDS011;7801;48.124;11.590;2023-06-19T01:53:44;3.83;;;3.50;;
15404;SDS011;7801;48.124;11.590;2023-06-19T01:56:11;5.07;;;3.70;;
15404;SDS011;7801;48.124;11.590;2023-06-19T01:58:44;2.20;;;2.10;;
15404;SDS011;7801;48.124;11.590;2023-06-19T02:01:15;1.93;;;1.93;;
15404;SDS011;7801;48.124;11.590;2023-06-19T02:03:40;5.00;;;2.33;;
15404;SDS011;7801;48.124;11.590;2023-06-19T02:06:11;2.73;;;2.53;;
15404;SDS011;7801;48.124;11.590;2023-06-19T02:08:44;7.80;;;1.87;;
15404;SDS011;7801;48.124;11.590;2023-06-19T02:11:30;2.47;;;2.30;;
15404;SDS011;7801;48.124;11.590;2023-06-19T02:13:58;2.30;;;2.20;;
15404;SDS011;7801;48.124;11.590;2023-06-19T02:16:31;2.20;;;2.10;;
15404;SDS011;7801;48.124;11.590;2023-06-19T02:18:58;1.33;;;1.33;;
15404;SDS011;7801;48.124;11.590;2023-06-19T02:21:29;2.30;;;2.10;;
15404;SDS011;7801;48.124;11.590;2023-06-19T02:23:55;4.07;;;3.77;;
15404;SDS011;7801;48.124;11.590;2023-06-19T02:26:24;2.17;;;2.07;;
15404;SDS011;7801;48.124;11.590;2023-06-19T02:28:53;1.83;;;1.70;;
15404;SDS011;7801;48.124;11.590;2023-06-19T02:31:19;2.23;;;2.13;;
15404;SDS011;7801;48.124;11.590;2023-06-19T02:33:52;1.73;;;1.63;;
15404;SDS011;7801;48.124;11.590;2023-06-19T02:36:18;1.90;;;1.80;;
15404;SDS011;7801;48.124;11.590;2023-06-19T02:39:09;2.80;;;2.67;;
15404;SDS011;7801;48.124;11.590;2023-06-19T02:41:35;4.57;;;2.97;;
15404;SDS011;7801;48.124;11.590;2023-06-19T02:44:03;2.50;;;1.77;;
15404;SDS011;7801;48.124;11.590;2023-06-19T02:46:32;1.67;;;1.67;;
15404;SDS011;7801;48.124;11.590;2023-06-19T02:49:01;1.70;;;1.70;;
15404;SDS011;7801;48.124;11.590;2023-06-19T02:51:27;2.43;;;2.23;;
15404;SDS011;7801;48.124;11.590;2023-06-19T02:53:54;2.40;;;2.30;;
15404;SDS011;7801;48.124;11.590;2023-06-19T02:56:21;1.97;;;1.90;;
15404;SDS011;7801;48.124;11.590;2023-06-19T02:58:51;2.00;;;1.83;;
15404;SDS011;7801;48.124;11.590;2023-06-19T03:01:17;2.53;;;2.40;;
15404;SDS011;7801;48.124;11.590;2023-06-19T03:03:51;17.13;;;2.27;;
15404;SDS011;7801;48.124;11.590;2023-06-19T03:06:18;2.17;;;2.07;;
15404;SDS011;7801;48.124;11.590;2023-06-19T03:08:45;4.77;;;2.83;;
15404;SDS011;7801;48.124;11.590;2023-06-19T03:11:44;2.33;;;2.23;;
15404;SDS011;7801;48.124;11.590;2023-06-19T03:14:09;2.27;;;2.17;;
15404;SDS011;7801;48.124;11.590;2023-06-19T03:16:38;2.60;;;2.40;;
15404;SDS011;7801;48.124;11.590;2023-06-19T03:19:05;2.93;;;2.73;;
15404;SDS011;7801;48.124;11.590;2023-06-19T03:21:33;2.77;;;2.57;;
15404;SDS011;7801;48.124;11.590;2023-06-19T03:24:03;1.90;;;1.83;;
15404;SDS011;7801;48.124;11.590;2023-06-19T03:26:31;2.90;;;2.80;;
15404;SDS011;7801;48.124;11.590;2023-06-19T03:28:59;2.30;;;2.20;;
15404;SDS011;7801;48.124;11.590;2023-06-19T03:31:25;3.73;;;2.77;;
15404;SDS011;7801;48.124;11.590;2023-06-19T03:33:51;3.27;;;3.03;;
15404;SDS011;7801;48.124;11.590;2023-06-19T03:36:19;3.10;;;2.90;;
15404;SDS011;7801;48.124;11.590;2023-06-19T03:38:48;3.27;;;2.23;;
15404;SDS011;7801;48.124;11.590;2023-06-19T03:41:34;1.60;;;1.60;;
15404;SDS011;7801;48.124;11.590;2023-06-19T03:44:03;2.03;;;1.83;;
15404;SDS011;7801;48.124;11.590;2023-06-19T03:46:47;2.07;;;2.00;;
15404;SDS011;7801;48.124;11.590;2023-06-19T03:49:12;2.53;;;2.43;;
15404;SDS011;7801;48.124;11.590;2023-06-19T03:51:53;2.03;;;1.93;;
15404;SDS011;7801;48.124;11.590;2023-06-19T03:54:22;3.23;;;3.03;;
15404;SDS011;7801;48.124;11.590;2023-06-19T03:56:51;3.90;;;3.47;;
15404;SDS011;7801;48.124;11.590;2023-06-19T03:59:19;2.80;;;2.60;;
15404;SDS011;7801;48.124;11.590;2023-06-19T04:01:54;2.97;;;2.77;;
15404;SDS011;7801;48.124;11.590;2023-06-19T04:04:22;1.73;;;1.73;;
15404;SDS011;7801;48.124;11.590;2023-06-19T04:06:47;2.53;;;2.43;;
15404;SDS011;7801;48.124;11.590;2023-06-19T04:09:14;2.57;;;2.37;;
15404;SDS011;7801;48.124;11.590;2023-06-19T04:11:44;2.87;;;2.77;;
15404;SDS011;7801;48.124;11.590;2023-06-19T04:14:11;1.83;;;1.83;;
15404;SDS011;7801;48.124;11.590;2023-06-19T04:16:37;2.00;;;1.90;;
15404;SDS011;7801;48.124;11.590;2023-06-19T04:19:07;2.43;;;2.33;;
15404;SDS011;7801;48.124;11.590;2023-06-19T04:21:34;2.10;;;2.00;;
15404;SDS011;7801;48.124;11.590;2023-06-19T04:24:05;2.57;;;2.43;;
15404;SDS011;7801;48.124;11.590;2023-06-19T04:26:33;2.80;;;2.63;;
15404;SDS011;7801;48.124;11.590;2023-06-19T04:28:59;2.77;;;2.53;;
15404;SDS011;7801;48.124;11.590;2023-06-19T04:31:50;3.33;;;3.13;;
15404;SDS011;7801;48.124;11.590;2023-06-19T04:34:18;2.73;;;2.53;;
15404;SDS011;7801;48.124;11.590;2023-06-19T04:36:48;3.77;;;3.57;;
15404;SDS011;7801;48.124;11.590;2023-06-19T04:39:25;2.70;;;2.57;;
15404;SDS011;7801;48.124;11.590;2023-06-19T04:41:53;1.87;;;1.87;;
15404;SDS011;7801;48.124;11.590;2023-06-19T04:44:19;3.00;;;2.73;;
15404;SDS011;7801;48.124;11.590;2023-06-19T04:46:47;2.73;;;2.50;;
15404;SDS011;7801;48.124;11.590;2023-06-19T04:49:12;2.17;;;2.07;;
15404;SDS011;7801;48.124;11.590;2023-06-19T04:51:41;3.07;;;2.87;;
15404;SDS011;7801;48.124;11.590;2023-06-19T04:54:08;2.17;;;2.07;;
15404;SDS011;7801;48.124;11.590;2023-06-19T04:56:34;2.80;;;2.60;;
15404;SDS011;7801;48.124;11.590;2023-06-19T04:59:15;5.73;;;3.03;;
15404;SDS011;7801;48.124;11.590;2023-06-19T05:01:44;2.27;;;2.17;;
15404;SDS011;7801;48.124;11.590;2023-06-19T05:04:09;4.70;;;3.57;;
15404;SDS011;7801;48.124;11.590;2023-06-19T05:06:39;3.70;;;2.13;;
15404;SDS011;7801;48.124;11.590;2023-06-19T05:09:10;2.43;;;2.33;;
15404;SDS011;7801;48.124;11.590;2023-06-19T05:11:57;2.60;;;2.50;;
15404;SDS011;7801;48.124;11.590;2023-06-19T05:14:25;1.67;;;1.67;;
15404;SDS011;7801;48.124;11.590;2023-06-19T05:16:56;2.80;;;2.60;;
15404;SDS011;7801;48.124;11.590;2023-06-19T05:19:21;2.73;;;2.53;;
15404;SDS011;7801;48.124;11.590;2023-06-19T05:21:48;5.60;;;3.20;;
15404;SDS011;7801;48.124;11.590;2023-06-19T05:24:17;3.03;;;2.83;;
15404;SDS011;7801;48.124;11.590;2023-06-19T05:26:43;3.70;;;3.40;;
15404;SDS011;7801;48.124;11.590;2023-06-19T05:29:09;2.87;;;2.50;;
15404;SDS011;7801;48.124;11.590;2023-06-19T05:31:39;3.60;;;2.70;;
15404;SDS011;7801;48.124;11.590;2023-06-19T05:34:07;2.00;;;1.83;;
15404;SDS011;7801;48.124;11.590;2023-06-19T05:36:36;3.07;;;2.87;;
15404;SDS011;7801;48.124;11.590;2023-06-19T05:39:05;2.73;;;2.63;;
15404;SDS011;7801;48.124;11.590;2023-06-19T05:41:34;5.07;;;3.17;;
15404;SDS011;7801;48.124;11.590;2023-06-19T05:44:01;3.23;;;2.37;;
15404;SDS011;7801;48.124;11.590;2023-06-19T05:46:30;1.90;;;1.90;;
15404;SDS011;7801;48.124;11.590;2023-06-19T05:49:01;2.97;;;2.73;;
15404;SDS011;7801;48.124;11.590;2023-06-19T05:51:27;3.23;;;2.90;;
15404;SDS011;7801;48.124;11.590;2023-06-19T05:53:55;3.70;;;3.33;;
15404;SDS011;7801;48.124;11.590;2023-06-19T05:56:41;2.60;;;2.50;;
15404;SDS011;7801;48.124;11.590;2023-06-19T05:59:14;2.60;;;2.50;;
15404;SDS011;7801;48.124;11.590;2023-06-19T06:01:41;44.33;;;3.83;;
15404;SDS011;7801;48.124;11.590;2023-06-19T06:04:06;26.60;;;5.70;;
15404;SDS011;7801;48.124;11.590;2023-06-19T06:06:32;13.87;;;4.43;;
15404;SDS011;7801;48.124;11.590;2023-06-19T06:09:00;4.40;;;4.07;;
15404;SDS011;7801;48.124;11.590;2023-06-19T06:11:35;5.10;;;4.03;;
15404;SDS011;7801;48.124;11.590;2023-06-19T06:14:01;5.57;;;4.47;;
15404;SDS011;7801;48.124;11.590;2023-06-19T06:16:26;2.77;;;2.60;;
15404;SDS011;7801;48.124;11.590;2023-06-19T06:18:54;4.10;;;2.70;;
15404;SDS011;7801;48.124;11.590;2023-06-19T06:21:26;4.57;;;4.07;;
15404;SDS011;7801;48.124;11.590;2023-06-19T06:24:15;2.53;;;2.43;;
15404;SDS011;7801;48.124;11.590;2023-06-19T06:26:41;2.93;;;2.73;;
15404;SDS011;7801;48.124;11.590;2023-06-19T06:29:15;3.63;;;3.33;;
15404;SDS011;7801;48.124;11.590;2023-06-19T06:31:41;2.07;;;2.00;;
15404;SDS011;7801;48.124;11.590;2023-06-19T06:34:10;2.67;;;2.57;;
15404;SDS011;7801;48.124;11.590;2023-06-19T06:36:36;2.60;;;2.50;;
15404;SDS011;7801;48.124;11.590;2023-06-19T06:39:02;2.83;;;2.73;;
15404;SDS011;7801;48.124;11.590;2023-06-19T06:41:33;3.73;;;3.43;;
15404;SDS011;7801;48.124;11.590;2023-06-19T06:43:58;3.17;;;2.97;;
15404;SDS011;7801;48.124;11.590;2023-06-19T06:46:25;4.00;;;3.53;;
15404;SDS011;7801;48.124;11.590;2023-06-19T06:49:05;3.33;;;3.03;;
15404;SDS011;7801;48.124;11.590;2023-06-19T06:51:34;10.30;;;3.70;;
15404;SDS011;7801;48.124;11.590;2023-06-19T06:54:03;2.23;;;2.03;;
15404;SDS011;7801;48.124;11.590;2023-06-19T06:56:31;2.10;;;2.00;;
15404;SDS011;7801;48.124;11.590;2023-06-19T06:58:57;3.60;;;3.20;;
15404;SDS011;7801;48.124;11.590;2023-06-19T07:01:25;2.30;;;2.20;;
15404;SDS011;7801;48.124;11.590;2023-06-19T07:03:50;2.93;;;2.73;;
15404;SDS011;7801;48.124;11.590;2023-06-19T07:06:17;1.60;;;1.60;;
15404;SDS011;7801;48.124;11.590;2023-06-19T07:08:46;1.67;;;1.67;;
15404;SDS011;7801;48.124;11.590;2023-06-19T07:11:15;2.40;;;2.30;;
15404;SDS011;7801;48.124;11.590;2023-06-19T07:13:43;4.73;;;3.20;;
15404;SDS011;7801;48.124;11.590;2023-06-19T07:16:11;2.40;;;2.30;;
15404;SDS011;7801;48.124;11.590;2023-06-19T07:18:42;2.67;;;1.93;;
15404;SDS011;7801;48.124;11.590;2023-06-19T07:21:16;1.70;;;1.60;;
15404;SDS011;7801;48.124;11.590;2023-06-19T07:23:53;1.70;;;1.70;;
15404;SDS011;7801;48.124;11.590;2023-06-19T07:33:03;1.73;;;1.47;;
15404;SDS011;7801;48.124;11.590;2023-06-19T07:35:31;2.47;;;2.27;;
15404;SDS011;7801;48.124;11.590;2023-06-19T07:37:59;1.87;;;1.83;;
15404;SDS011;7801;48.124;11.590;2023-06-19T07:40:32;2.10;;;1.93;;
15404;SDS011;7801;48.124;11.590;2023-06-19T07:43:00;1.90;;;1.80;;
15404;SDS011;7801;48.124;11.590;2023-06-19T07:45:25;1.63;;;1.63;;
15404;SDS011;7801;48.124;11.590;2023-06-19T07:47:57;2.17;;;1.47;;
15404;SDS011;7801;48.124;11.590;2023-06-19T07:50:23;1.90;;;1.80;;
15404;SDS011;7801;48.124;11.590;2023-06-19T07:52:50;1.50;;;1.50;;
15404;SDS011;7801;48.124;11.590;2023-06-19T07:55:15;1.27;;;1.27;;
15404;SDS011;7801;48.124;11.590;2023-06-19T07:57:44;2.10;;;2.00;;
15404;SDS011;7801;48.124;11.590;2023-06-19T08:00:11;0.83;;;0.83;;
15404;SDS011;7801;48.124;11.590;2023-06-19T08:02:46;1.80;;;1.70;;
15404;SDS011;7801;48.124;11.590;2023-06-19T08:05:20;1.37;;;1.37;;
15404;SDS011;7801;48.124;11.590;2023-06-19T08:07:49;1.53;;;1.53;;
15404;SDS011;7801;48.124;11.590;2023-06-19T08:10:15;3.07;;;2.07;;
15404;SDS011;7801;48.124;11.590;2023-06-19T08:12:45;1.57;;;1.47;;
15404;SDS011;7801;48.124;11.590;2023-06-19T08:15:12;1.03;;;1.03;;
15404;SDS011;7801;48.124;11.590;2023-06-19T08:17:43;1.03;;;1.03;;
15404;SDS011;7801;48.124;11.590;2023-06-19T08:20:15;1.80;;;1.70;;
15404;SDS011;7801;48.124;11.590;2023-06-19T08:22:50;1.03;;;1.03;;
15404;SDS011;7801;48.124;11.590;2023-06-19T08:25:15;1.40;;;1.40;;
15404;SDS011;7801;48.124;11.590;2023-06-19T08:27:44;1.47;;;1.47;;
15404;SDS011;7801;48.124;11.590;2023-06-19T08:30:12;1.40;;;1.30;;
15404;SDS011;7801;48.124;11.590;2023-06-19T08:32:43;1.63;;;1.43;;
15404;SDS011;7801;48.124;11.590;2023-06-19T08:35:18;2.20;;;2.00;;
15404;SDS011;7801;48.124;11.590;2023-06-19T08:37:48;1.27;;;1.27;;
15404;SDS011;7801;48.124;11.590;2023-06-19T08:40:15;1.37;;;1.37;;
15404;SDS011;7801;48.124;11.590;2023-06-19T08:42:42;1.30;;;1.10;;
15404;SDS011;7801;48.124;11.590;2023-06-19T08:45:16;1.00;;;1.00;;
15404;SDS011;7801;48.124;11.590;2023-06-19T08:47:44;1.37;;;1.37;;
15404;SDS011;7801;48.124;11.590;2023-06-19T08:50:12;1.07;;;1.07;;
15404;SDS011;7801;48.124;11.590;2023-06-19T08:52:37;1.67;;;1.50;;
15404;SDS011;7801;48.124;11.590;2023-06-19T08:55:04;0.90;;;0.90;;
15404;SDS011;7801;48.124;11.590;2023-06-19T08:57:38;1.07;;;1.07;;
15404;SDS011;7801;48.124;11.590;2023-06-19T09:00:08;1.13;;;1.13;;
15404;SDS011;7801;48.124;11.590;2023-06-19T09:02:46;0.70;;;0.70;;
15404;SDS011;7801;48.124;11.590;2023-06-19T09:05:16;1.77;;;1.67;;
15404;SDS011;7801;48.124;11.590;2023-06-19T09:07:58;1.30;;;1.30;;
15404;SDS011;7801;48.124;11.590;2023-06-19T09:10:38;1.67;;;1.67;;
15404;SDS011;7801;48.124;11.590;2023-06-19T09:13:10;0.70;;;0.70;;
15404;SDS011;7801;48.124;11.590;2023-06-19T09:15:37;1.27;;;1.17;;
15404;SDS011;7801;48.124;11.590;2023-06-19T09:18:15;1.00;;;1.00;;
15404;SDS011;7801;48.124;11.590;2023-06-19T09:20:51;1.00;;;1.00;;
15404;SDS011;7801;48.124;11.590;2023-06-19T09:23:39;0.70;;;0.70;;
15404;SDS011;7801;48.124;11.590;2023-06-19T09:26:04;0.70;;;0.70;;
15404;SDS011;7801;48.124;11.590;2023-06-19T09:28:52;0.40;;;0.40;;
15404;SDS011;7801;48.124;11.590;2023-06-19T09:31:20;1.17;;;0.87;;
15404;SDS011;7801;48.124;11.590;2023-06-19T09:34:08;0.50;;;0.50;;
15404;SDS011;7801;48.124;11.590;2023-06-19T09:36:36;1.00;;;1.00;;
15404;SDS011;7801;48.124;11.590;2023-06-19T09:39:09;0.60;;;0.60;;
15404;SDS011;7801;48.124;11.590;2023-06-19T09:41:38;0.60;;;0.60;;
15404;SDS011;7801;48.124;11.590;2023-06-19T09:44:11;0.37;;;0.37;;
15404;SDS011;7801;48.124;11.590;2023-06-19T09:46:43;1.00;;;1.00;;
15404;SDS011;7801;48.124;11.590;2023-06-19T09:49:36;1.43;;;1.43;;
15404;SDS011;7801;48.124;11.590;2023-06-19T09:52:36;5.63;;;1.17;;
15404;SDS011;7801;48.124;11.590;2023-06-19T09:55:03;1.27;;;1.27;;
15404;SDS011;7801;48.124;11.590;2023-06-19T09:57:32;2.63;;;1.13;;
15404;SDS011;7801;48.124;11.590;2023-06-19T10:00:14;1.07;;;1.07;;
15404;SDS011;7801;48.124;11.590;2023-06-19T10:02:51;1.27;;;1.27;;
15404;SDS011;7801;48.124;11.590;2023-06-19T10:05:40;1.73;;;1.63;;
15404;SDS011;7801;48.124;11.590;2023-06-19T10:08:25;1.10;;;1.10;;
15404;SDS011;7801;48.124;11.590;2023-06-19T10:11:16;1.00;;;1.00;;
15404;SDS011;7801;48.124;11.590;2023-06-19T10:13:42;1.23;;;1.23;;
15404;SDS011;7801;48.124;11.590;2023-06-19T10:16:31;0.93;;;0.93;;
15404;SDS011;7801;48.124;11.590;2023-06-19T10:18:57;0.73;;;0.73;;
15404;SDS011;7801;48.124;11.590;2023-06-19T10:21:22;0.77;;;0.77;;
15404;SDS011;7801;48.124;11.590;2023-06-19T10:23:56;1.23;;;1.23;;
15404;SDS011;7801;48.124;11.590;2023-06-19T10:26:41;0.90;;;0.90;;
15404;SDS011;7801;48.124;11.590;2023-06-19T10:29:14;0.90;;;0.90;;
15404;SDS011;7801;48.124;11.590;2023-06-19T10:31:43;1.43;;;1.43;;
15404;SDS011;7801;48.124;11.590;2023-06-19T10:34:11;1.03;;;1.03;;
15404;SDS011;7801;48.124;11.590;2023-06-19T10:36:37;1.20;;;1.20;;
15404;SDS011;7801;48.124;11.590;2023-06-19T10:39:04;2.07;;;1.33;;
15404;SDS011;7801;48.124;11.590;2023-06-19T10:41:31;1.50;;;1.13;;
15404;SDS011;7801;48.124;11.590;2023-06-19T10:44:06;0.90;;;0.90;;
15404;SDS011;7801;48.124;11.590;2023-06-19T10:46:57;1.23;;;1.23;;
15404;SDS011;7801;48.124;11.590;2023-06-19T10:49:43;1.00;;;1.00;;
15404;SDS011;7801;48.124;11.590;2023-06-19T10:52:08;0.97;;;0.97;;
15404;SDS011;7801;48.124;11.590;2023-06-19T10:54:52;1.13;;;1.13;;
15404;SDS011;7801;48.124;11.590;2023-06-19T10:57:19;1.10;;;1.10;;
15404;SDS011;7801;48.124;11.590;2023-06-19T10:59:52;0.60;;;0.60;;
15404;SDS011;7801;48.124;11.590;2023-06-19T11:02:36;1.00;;;1.00;;
15404;SDS011;7801;48.124;11.590;2023-06-19T11:05:19;1.53;;;1.43;;
15404;SDS011;7801;48.124;11.590;2023-06-19T11:07:55;1.53;;;1.47;;
15404;SDS011;7801;48.124;11.590;2023-06-19T11:10:42;1.30;;;1.20;;
15404;SDS011;7801;48.124;11.590;2023-06-19T11:13:29;1.30;;;1.30;;
15404;SDS011;7801;48.124;11.590;2023-06-19T11:15:55;1.80;;;1.70;;
15404;SDS011;7801;48.124;11.590;2023-06-19T11:18:55;0.83;;;0.83;;
15404;SDS011;7801;48.124;11.590;2023-06-19T11:21:36;1.27;;;1.27;;
15404;SDS011;7801;48.124;11.590;2023-06-19T11:24:05;1.70;;;1.70;;
15404;SDS011;7801;48.124;11.590;2023-06-19T11:26:40;1.00;;;1.00;;
15404;SDS011;7801;48.124;11.590;2023-06-19T11:29:37;0.87;;;0.87;;
15404;SDS011;7801;48.124;11.590;2023-06-19T11:32:09;1.03;;;0.97;;
15404;SDS011;7801;48.124;11.590;2023-06-19T11:35:04;1.10;;;1.10;;
15404;SDS011;7801;48.124;11.590;2023-06-19T11:37:43;1.13;;;1.00;;
15404;SDS011;7801;48.124;11.590;2023-06-19T11:40:18;1.33;;;1.23;;
15404;SDS011;7801;48.124;11.590;2023-06-19T11:42:49;0.90;;;0.90;;
15404;SDS011;7801;48.124;11.590;2023-06-19T11:45:17;1.27;;;1.20;;
15404;SDS011;7801;48.124;11.590;2023-06-19T11:47:45;0.90;;;0.90;;
15404;SDS011;7801;48.124;11.590;2023-06-19T11:50:29;0.60;;;0.60;;
15404;SDS011;7801;48.124;11.590;2023-06-19T11:52:56;0.47;;;0.47;;
15404;SDS011;7801;48.124;11.590;2023-06-19T11:55:25;1.37;;;1.37;;
15404;SDS011;7801;48.124;11.590;2023-06-19T11:57:53;0.67;;;0.67;;
15404;SDS011;7801;48.124;11.590;2023-06-19T12:00:48;0.83;;;0.83;;
15404;SDS011;7801;48.124;11.590;2023-06-19T12:03:18;0.93;;;0.87;;
15404;SDS011;7801;48.124;11.590;2023-06-19T12:05:45;0.43;;;0.43;;
15404;SDS011;7801;48.124;11.590;2023-06-19T12:08:39;0.90;;;0.90;;
15404;SDS011;7801;48.124;11.590;2023-06-19T12:11:07;1.20;;;0.67;;
15404;SDS011;7801;48.124;11.590;2023-06-19T12:13:50;0.70;;;0.70;;
15404;SDS011;7801;48.124;11.590;2023-06-19T12:16:25;3.80;;;1.47;;
15404;SDS011;7801;48.124;11.590;2023-06-19T12:18:59;0.27;;;0.27;;
15404;SDS011;7801;48.124;11.590;2023-06-19T12:21:29;2.53;;;1.17;;
15404;SDS011;7801;48.124;11.590;2023-06-19T12:24:04;0.60;;;0.60;;
15404;SDS011;7801;48.124;11.590;2023-06-19T12:26:33;0.87;;;0.87;;
15404;SDS011;7801;48.124;11.590;2023-06-19T12:29:16;1.00;;;0.90;;
15404;SDS011;7801;48.124;11.590;2023-06-19T12:31:43;1.10;;;1.10;;
15404;SDS011;7801;48.124;11.590;2023-06-19T12:34:09;0.70;;;0.70;;
15404;SDS011;7801;48.124;11.590;2023-06-19T12:36:43;0.97;;;0.97;;
15404;SDS011;7801;48.124;11.590;2023-06-19T12:39:10;0.70;;;0.70;;
15404;SDS011;7801;48.124;11.590;2023-06-19T12:41:53;0.43;;;0.43;;
15404;SDS011;7801;48.124;11.590;2023-06-19T12:44:21;3.67;;;1.10;;
15404;SDS011;7801;48.124;11.590;2023-06-19T12:46:47;0.73;;;0.73;;
15404;SDS011;7801;48.124;11.590;2023-06-19T12:49:18;0.90;;;0.90;;
15404;SDS011;7801;48.124;11.590;2023-06-19T12:51:45;1.20;;;1.20;;
15404;SDS011;7801;48.124;11.590;2023-06-19T12:54:16;1.13;;;1.03;;
15404;SDS011;7801;48.124;11.590;2023-06-19T12:56:44;1.00;;;1.00;;
15404;SDS011;7801;48.124;11.590;2023-06-19T12:59:11;0.70;;;0.70;;
15404;SDS011;7801;48.124;11.590;2023-06-19T13:01:38;1.30;;;1.30;;
15404;SDS011;7801;48.124;11.590;2023-06-19T13:04:05;0.67;;;0.57;;
15404;SDS011;7801;48.124;11.590;2023-06-19T13:06:32;0.30;;;0.30;;
15404;SDS011;7801;48.124;11.590;2023-06-19T13:09:19;0.57;;;0.57;;
15404;SDS011;7801;48.124;11.590;2023-06-19T13:11:45;0.83;;;0.83;;
15404;SDS011;7801;48.124;11.590;2023-06-19T13:14:10;0.70;;;0.70;;
15404;SDS011;7801;48.124;11.590;2023-06-19T13:16:36;2.57;;;2.27;;
15404;SDS011;7801;48.124;11.590;2023-06-19T13:19:05;0.97;;;0.97;;
15404;SDS011;7801;48.124;11.590;2023-06-19T13:21:36;1.17;;;1.17;;
15404;SDS011;7801;48.124;11.590;2023-06-19T13:24:03;4.57;;;2.37;;
15404;SDS011;7801;48.124;11.590;2023-06-19T13:26:28;0.90;;;0.90;;
15404;SDS011;7801;48.124;11.590;2023-06-19T13:28:54;0.53;;;0.53;;
15404;SDS011;7801;48.124;11.590;2023-06-19T13:31:23;1.10;;;1.00;;
15404;SDS011;7801;48.124;11.590;2023-06-19T13:33:50;0.90;;;0.90;;
15404;SDS011;7801;48.124;11.590;2023-06-19T13:36:16;0.53;;;0.53;;
15404;SDS011;7801;48.124;11.590;2023-06-19T13:38:45;0.47;;;0.47;;
15404;SDS011;7801;48.124;11.590;2023-06-19T13:41:11;0.60;;;0.60;;
15404;SDS011;7801;48.124;11.590;2023-06-19T13:43:43;0.40;;;0.40;;
15404;SDS011;7801;48.124;11.590;2023-06-19T13:46:38;0.60;;;0.60;;
15404;SDS011;7801;48.124;11.590;2023-06-19T13:49:08;0.80;;;0.80;;
15404;SDS011;7801;48.124;11.590;2023-06-19T13:51:35;0.90;;;0.90;;
15404;SDS011;7801;48.124;11.590;2023-06-19T13:54:15;0.67;;;0.67;;
15404;SDS011;7801;48.124;11.590;2023-06-19T13:56:45;0.77;;;0.77;;
15404;SDS011;7801;48.124;11.590;2023-06-19T13:59:12;0.87;;;0.87;;
15404;SDS011;7801;48.124;11.590;2023-06-19T14:01:39;0.70;;;0.70;;
15404;SDS011;7801;48.124;11.590;2023-06-19T14:04:06;0.50;;;0.50;;
15404;SDS011;7801;48.124;11.590;2023-06-19T14:06:39;0.30;;;0.30;;
15404;SDS011;7801;48.124;11.590;2023-06-19T14:09:17;1.27;;;1.27;;
15404;SDS011;7801;48.124;11.590;2023-06-19T14:11:47;0.90;;;0.90;;
15404;SDS011;7801;48.124;11.590;2023-06-19T14:14:14;0.60;;;0.60;;
15404;SDS011;7801;48.124;11.590;2023-06-19T14:16:45;0.40;;;0.40;;
15404;SDS011;7801;48.124;11.590;2023-06-19T14:19:14;1.23;;;0.87;;
15404;SDS011;7801;48.124;11.590;2023-06-19T14:21:44;1.20;;;1.20;;
15404;SDS011;7801;48.124;11.590;2023-06-19T14:24:18;0.87;;;0.87;;
15404;SDS011;7801;48.124;11.590;2023-06-19T14:26:50;0.37;;;0.37;;
15404;SDS011;7801;48.124;11.590;2023-06-19T14:29:17;3.50;;;1.13;;
15404;SDS011;7801;48.124;11.590;2023-06-19T14:31:46;0.50;;;0.50;;
15404;SDS011;7801;48.124;11.590;2023-06-19T14:34:14;2.20;;;1.07;;
15404;SDS011;7801;48.124;11.590;2023-06-19T14:36:45;1.63;;;1.53;;
15404;SDS011;7801;48.124;11.590;2023-06-19T14:39:12;0.40;;;0.40;;
15404;SDS011;7801;48.124;11.590;2023-06-19T14:41:43;1.10;;;1.10;;
15404;SDS011;7801;48.124;11.590;2023-06-19T14:44:10;1.67;;;1.57;;
15404;SDS011;7801;48.124;11.590;2023-06-19T14:46:37;1.00;;;1.00;;
15404;SDS011;7801;48.124;11.590;2023-06-19T14:49:27;0.60;;;0.60;;
15404;SDS011;7801;48.124;11.590;2023-06-19T14:51:53;0.77;;;0.77;;
15404;SDS011;7801;48.124;11.590;2023-06-19T14:54:28;0.53;;;0.53;;
15404;SDS011;7801;48.124;11.590;2023-06-19T14:57:07;1.90;;;1.80;;
15404;SDS011;7801;48.124;11.590;2023-06-19T14:59:48;0.67;;;0.67;;
15404;SDS011;7801;48.124;11.590;2023-06-19T15:02:17;0.63;;;0.63;;
15404;SDS011;7801;48.124;11.590;2023-06-19T15:04:44;0.60;;;0.60;;
15404;SDS011;7801;48.124;11.590;2023-06-19T15:07:10;0.87;;;0.87;;
15404;SDS011;7801;48.124;11.590;2023-06-19T15:09:37;1.10;;;1.10;;
15404;SDS011;7801;48.124;11.590;2023-06-19T15:12:02;1.20;;;1.10;;
15404;SDS011;7801;48.124;11.590;2023-06-19T15:14:33;0.50;;;0.40;;
15404;SDS011;7801;48.124;11.590;2023-06-19T15:17:06;13.40;;;1.17;;
15404;SDS011;7801;48.124;11.590;2023-06-19T15:19:33;0.50;;;0.50;;
15404;SDS011;7801;48.124;11.590;2023-06-19T15:22:00;0.53;;;0.53;;
15404;SDS011;7801;48.124;11.590;2023-06-19T15:24:25;0.70;;;0.70;;
15404;SDS011;7801;48.124;11.590;2023-06-19T15:26:50;1.07;;;1.07;;
15404;SDS011;7801;48.124;11.590;2023-06-19T15:29:27;4.57;;;4.27;;